KSWF/SWF METAR and TAF weather

Enter ICAO airport designator
Station Type Date Time Source
KSWF METAR 2021/09/25 11:45 UTC NOAA

KSWF 251145Z 00000KT 10SM SKC 11/11 A3007


Station Type Date Time Source
KSWF Decoded METAR 2021/09/25 11:45 UTC NOAA

Newburgh / Stewart, NY, United States (KSWF) 41-30N 074-06W
Sep 25, 2021 - 07:45 AM EDT / 2021.09.25 1145 UTC
Wind: Calm:0
Visibility: 10 mile(s):0
Sky conditions: clear
Temperature: 51 F (11 C)
Dew Point: 51 F (11 C)
Relative Humidity: 100%
Pressure (altimeter): 30.07 in. Hg (1018 hPa)
ob: KSWF 251145Z 00000KT 10SM SKC 11/11 A3007
cycle: 12

Station Type Date Time Source
KSWF TAF 2021/09/25 12:40 UTC NOAA

TAF KSWF 251138Z 2512/2618 VRB03KT P6SM SKC
FM251800 24006KT P6SM FEW045 SCT250
FM260000 VRB03KT P6SM FEW050 SCT100 BKN250
FM261000 29009KT P6SM FEW050 FEW100 FEW250
FM261300 30013G18KT P6SM FEW050 FEW250
FM261500 31015G21KT P6SM FEW050
AMD NOT SKED

Example: see airport list